createdAt,value
2018-06-14T00:02:46.608Z,3.4
2018-06-14T00:05:46.437Z,3.2
2018-06-14T00:08:46.628Z,3.1
2018-06-14T00:11:46.648Z,3
2018-06-14T00:14:46.641Z,3.2
2018-06-14T00:17:46.625Z,3.1
2018-06-14T00:20:46.804Z,3.1
2018-06-14T00:23:46.639Z,3.3
2018-06-14T00:26:46.649Z,3.2
2018-06-14T00:29:46.594Z,3.3
2018-06-14T00:32:46.576Z,3.3
2018-06-14T00:35:46.588Z,3.1
2018-06-14T00:38:46.902Z,3.1
2018-06-14T00:41:46.561Z,3
2018-06-14T00:44:46.560Z,3
2018-06-14T00:47:46.610Z,3
2018-06-14T00:50:46.844Z,3
2018-06-14T00:53:46.745Z,3.1
2018-06-14T00:56:46.702Z,3.1
2018-06-14T00:59:46.550Z,3.1
2018-06-14T01:02:46.676Z,3.1
2018-06-14T01:05:46.477Z,3.1
2018-06-14T01:08:46.629Z,3.1
2018-06-14T01:11:46.671Z,3.1
2018-06-14T01:14:46.475Z,3.1
2018-06-14T01:17:46.674Z,3.1
2018-06-14T01:20:46.579Z,3.1
2018-06-14T01:23:46.567Z,3.2
2018-06-14T01:26:46.748Z,3.2
2018-06-14T01:29:46.630Z,3.2
2018-06-14T01:32:46.508Z,3.1
2018-06-14T01:35:46.704Z,3.1
2018-06-14T01:38:46.534Z,3.1
2018-06-14T01:41:47.375Z,3.1
2018-06-14T01:44:46.522Z,3.2
2018-06-14T01:47:46.615Z,3.3
2018-06-14T01:50:46.533Z,3.2
2018-06-14T01:53:46.660Z,3.2
2018-06-14T01:56:46.857Z,3.1
2018-06-14T01:59:46.540Z,3.1
2018-06-14T02:02:46.821Z,3.1
2018-06-14T02:05:46.712Z,3.2
2018-06-14T02:08:46.493Z,3.1
2018-06-14T02:11:46.586Z,3
2018-06-14T02:14:46.637Z,3
2018-06-14T02:17:46.450Z,3
2018-06-14T02:20:46.507Z,3.1
2018-06-14T02:23:46.572Z,3.1
2018-06-14T02:26:46.504Z,3.1
2018-06-14T02:29:46.526Z,3.1
2018-06-14T02:32:46.595Z,3.1
2018-06-14T02:35:46.536Z,3
2018-06-14T02:38:46.858Z,3
2018-06-14T02:41:46.595Z,3
2018-06-14T02:44:46.764Z,3.1
2018-06-14T02:47:46.531Z,3
2018-06-14T02:50:46.633Z,3.1
2018-06-14T02:53:46.487Z,3.1
2018-06-14T02:56:46.702Z,3
2018-06-14T02:59:46.537Z,3
2018-06-14T03:02:46.688Z,3.1
2018-06-14T03:05:46.774Z,3.1
2018-06-14T03:08:46.319Z,3.1
2018-06-14T03:11:46.629Z,3.1
2018-06-14T03:14:46.585Z,3.1
2018-06-14T03:17:46.738Z,3
2018-06-14T03:20:46.603Z,3
2018-06-14T03:23:46.442Z,3
2018-06-14T03:26:46.392Z,3
2018-06-14T03:29:46.555Z,2.9
2018-06-14T03:32:46.391Z,3
2018-06-14T03:35:46.643Z,3
2018-06-14T03:38:46.418Z,3
2018-06-14T03:41:46.567Z,2.9
2018-06-14T03:44:46.406Z,3
2018-06-14T03:47:46.781Z,2.9
2018-06-14T03:50:46.736Z,3
2018-06-14T03:53:46.442Z,3
2018-06-14T03:56:46.520Z,2.9
2018-06-14T03:59:46.496Z,3
2018-06-14T04:02:46.557Z,3
2018-06-14T04:05:46.677Z,3
2018-06-14T04:08:46.553Z,2.9
2018-06-14T04:11:46.510Z,2.8
2018-06-14T04:14:46.534Z,2.8
2018-06-14T04:17:46.691Z,2.8
2018-06-14T04:20:46.658Z,2.9
2018-06-14T04:23:46.605Z,2.9
2018-06-14T04:26:46.591Z,3
2018-06-14T04:29:46.534Z,2.9
2018-06-14T04:32:46.510Z,2.9
2018-06-14T04:35:46.553Z,2.9
2018-06-14T04:38:46.485Z,3
2018-06-14T04:41:46.399Z,2.9
2018-06-14T04:44:46.623Z,2.9
2018-06-14T04:47:46.410Z,3
2018-06-14T04:50:46.380Z,2.9
2018-06-14T04:53:46.420Z,3
2018-06-14T04:56:46.454Z,3
2018-06-14T04:59:46.412Z,2.9
2018-06-14T05:02:46.821Z,3
2018-06-14T05:05:47.001Z,2.9
2018-06-14T05:08:46.576Z,2.8
2018-06-14T05:11:46.524Z,2.9
2018-06-14T05:14:46.558Z,2.9
2018-06-14T05:17:46.486Z,2.9
2018-06-14T05:20:46.462Z,3.3
2018-06-14T05:23:46.657Z,3.1
2018-06-14T05:26:46.586Z,3
2018-06-14T05:29:46.373Z,2.9
2018-06-14T05:32:46.416Z,2.9
2018-06-14T05:35:46.596Z,2.9
2018-06-14T05:38:46.658Z,3
2018-06-14T05:41:46.470Z,2.9
2018-06-14T05:44:46.474Z,2.8
2018-06-14T05:47:47.165Z,2.9
2018-06-14T05:50:46.631Z,3.4
2018-06-14T05:53:46.541Z,4
2018-06-14T05:56:46.537Z,4.5
2018-06-14T05:59:46.401Z,4.3
2018-06-14T06:02:47.180Z,4
2018-06-14T06:05:46.445Z,3.9
2018-06-14T06:08:46.472Z,4.1
2018-06-14T06:11:46.449Z,3.9
2018-06-14T06:14:46.439Z,3.7
2018-06-14T06:17:46.572Z,3.5
2018-06-14T06:20:46.511Z,3.6
2018-06-14T06:23:46.539Z,3.5
2018-06-14T06:26:46.764Z,4
2018-06-14T06:29:46.592Z,3.5
2018-06-14T06:32:46.459Z,4.4
2018-06-14T06:35:46.489Z,4
2018-06-14T06:38:47.407Z,3.7
2018-06-14T06:41:46.563Z,3.9
2018-06-14T06:44:46.561Z,4.6
2018-06-14T06:47:46.714Z,4.4
2018-06-14T06:50:46.387Z,4.1
2018-06-14T06:53:46.426Z,6.3
2018-06-14T06:56:46.527Z,5.1
2018-06-14T06:59:46.497Z,4.7
2018-06-14T07:02:46.599Z,4.7
2018-06-14T07:05:46.525Z,6.3
2018-06-14T07:08:46.558Z,7.1
2018-06-14T07:11:46.641Z,6.4
2018-06-14T07:14:46.379Z,8.3
2018-06-14T07:17:46.492Z,6.5
2018-06-14T07:20:46.588Z,5.9
2018-06-14T07:23:46.494Z,6
2018-06-14T07:26:46.541Z,6.3
2018-06-14T07:29:46.416Z,5.9
2018-06-14T07:32:46.357Z,4.9
2018-06-14T07:35:46.613Z,4.7
2018-06-14T07:38:46.352Z,5.1
2018-06-14T07:41:46.598Z,4.9
2018-06-14T07:44:46.451Z,4.4
2018-06-14T07:47:46.401Z,4.8
2018-06-14T07:50:46.418Z,4.4
2018-06-14T07:53:46.410Z,4.1
2018-06-14T07:56:46.539Z,4.4
2018-06-14T07:59:46.454Z,4.7
2018-06-14T08:02:46.581Z,4.3
2018-06-14T08:05:46.444Z,4.8
2018-06-14T08:08:56.430Z,4.7
2018-06-14T08:11:46.563Z,4.6
2018-06-14T08:14:46.576Z,4.3
2018-06-14T08:17:46.501Z,4.4
2018-06-14T08:20:46.417Z,4.8
2018-06-14T08:23:46.510Z,5
2018-06-14T08:26:46.495Z,5.1
2018-06-14T08:29:46.366Z,5.4
2018-06-14T08:32:46.616Z,4.6
2018-06-14T08:35:46.498Z,4.6
2018-06-14T08:38:46.444Z,5.9
2018-06-14T08:41:46.535Z,5.1
2018-06-14T08:44:47.190Z,5.2
2018-06-14T08:47:46.471Z,5.2
2018-06-14T08:50:46.481Z,4.3
2018-06-14T08:53:46.646Z,3.9
2018-06-14T08:56:46.371Z,4.3
2018-06-14T08:59:46.478Z,3.8
2018-06-14T09:02:46.583Z,3.6
2018-06-14T09:05:46.426Z,3.6
2018-06-14T09:08:46.411Z,3.6
2018-06-14T09:11:46.514Z,3.7
2018-06-14T09:14:46.810Z,4.2
2018-06-14T09:17:46.744Z,4.5
2018-06-14T09:20:46.889Z,4.2
2018-06-14T09:23:46.698Z,4.4
2018-06-14T09:26:47.114Z,4.3
2018-06-14T09:29:46.971Z,4.1
2018-06-14T09:32:46.611Z,3.9
2018-06-14T09:35:47.578Z,3.7
2018-06-14T09:38:46.806Z,3.5
2018-06-14T09:41:47.031Z,3.4
2018-06-14T09:44:49.036Z,3.7
2018-06-14T09:47:49.276Z,3.5
2018-06-14T09:50:46.976Z,5.2
2018-06-14T09:53:46.573Z,5.3
2018-06-14T09:56:46.671Z,7
2018-06-14T09:59:46.372Z,7.8
2018-06-14T10:02:46.485Z,7.6
2018-06-14T10:05:46.525Z,7
2018-06-14T10:08:46.420Z,7.1
2018-06-14T10:11:46.513Z,8.1
2018-06-14T10:14:46.445Z,7.9
2018-06-14T10:17:46.442Z,7.6
2018-06-14T10:20:46.507Z,7.3
2018-06-14T10:23:46.359Z,6.2
2018-06-14T10:26:46.279Z,5.9
2018-06-14T10:29:46.514Z,5.9
2018-06-14T10:32:46.501Z,7.4
2018-06-14T10:35:46.247Z,6.1
2018-06-14T10:38:46.339Z,6.5
2018-06-14T10:41:46.489Z,6.4
2018-06-14T10:44:46.267Z,7.1
2018-06-14T10:47:46.427Z,6.6
2018-06-14T10:50:46.376Z,6.2
2018-06-14T10:53:46.440Z,6.3
2018-06-14T10:56:46.475Z,6.9
2018-06-14T10:59:46.561Z,6.1
2018-06-14T11:02:46.474Z,4.7
2018-06-14T11:05:46.501Z,4.7
2018-06-14T11:08:46.422Z,4.6
2018-06-14T11:11:46.468Z,4.2
2018-06-14T11:14:46.912Z,4.7
2018-06-14T11:17:46.591Z,4.6
2018-06-14T11:20:46.454Z,4.6
2018-06-14T11:23:46.582Z,4.2
2018-06-14T11:26:46.372Z,5.1
2018-06-14T11:29:46.382Z,4.2
2018-06-14T11:32:46.457Z,4.4
2018-06-14T11:35:46.445Z,4.4
2018-06-14T11:38:46.432Z,4.2
2018-06-14T11:41:46.545Z,3.9
2018-06-14T11:44:46.465Z,3.8
2018-06-14T11:47:46.455Z,3.9
2018-06-14T11:50:46.376Z,3.9
2018-06-14T11:53:46.523Z,3.6
2018-06-14T11:56:46.516Z,3.7
2018-06-14T11:59:46.340Z,3.5
2018-06-14T12:02:46.597Z,3.3
2018-06-14T12:05:46.657Z,3.2
2018-06-14T12:08:46.658Z,3.4
2018-06-14T12:11:46.526Z,3.6
2018-06-14T12:14:46.456Z,3.3
2018-06-14T12:17:46.540Z,3.8
2018-06-14T12:20:46.471Z,3.7
2018-06-14T12:23:46.603Z,4.8
2018-06-14T12:26:46.538Z,4.8
2018-06-14T12:29:46.376Z,4
2018-06-14T12:32:46.428Z,3.8
2018-06-14T12:35:46.504Z,3.6
2018-06-14T12:38:46.429Z,3.3
2018-06-14T12:41:46.508Z,3.2
2018-06-14T12:44:46.470Z,3.9
2018-06-14T12:47:46.483Z,3.4
2018-06-14T12:50:46.432Z,3.4
2018-06-14T12:53:46.794Z,3.3
2018-06-14T12:56:46.497Z,3.3
2018-06-14T12:59:46.458Z,3.1
2018-06-14T13:02:46.550Z,3.2
2018-06-14T13:05:46.520Z,3.1
2018-06-14T13:08:46.368Z,3.1
2018-06-14T13:11:46.287Z,3.1
2018-06-14T13:14:46.346Z,3.8
2018-06-14T13:17:46.510Z,4.5
2018-06-14T13:20:46.540Z,5.2
2018-06-14T13:23:46.566Z,4.7
2018-06-14T13:26:46.328Z,6.6
2018-06-14T13:29:46.382Z,8.5
2018-06-14T13:32:46.356Z,10.4
2018-06-14T13:35:46.578Z,10
2018-06-14T13:38:46.521Z,10.5
2018-06-14T13:41:46.245Z,11.5
2018-06-14T13:44:46.647Z,9.8
2018-06-14T13:47:46.312Z,10.5
2018-06-14T13:50:56.393Z,11.7
2018-06-14T13:53:46.697Z,9.2
2018-06-14T13:56:46.380Z,8.1
2018-06-14T13:59:46.657Z,8.5
2018-06-14T14:02:46.824Z,8.2
2018-06-14T14:05:46.336Z,7.5
2018-06-14T14:08:47.312Z,7.9
2018-06-14T14:11:46.314Z,7.3
2018-06-14T14:14:46.220Z,7.5
2018-06-14T14:17:46.513Z,7.1
2018-06-14T14:20:46.390Z,6.5
2018-06-14T14:23:46.465Z,6.9
2018-06-14T14:26:46.236Z,8
2018-06-14T14:29:46.398Z,8.1
2018-06-14T14:32:46.402Z,7.1
2018-06-14T14:35:46.468Z,7.5
2018-06-14T14:38:46.498Z,8.1
2018-06-14T14:41:46.282Z,9.1
2018-06-14T14:44:46.311Z,7.9
2018-06-14T14:47:47.164Z,7.3
2018-06-14T14:50:46.443Z,8.9
2018-06-14T14:53:46.401Z,8.6
2018-06-14T14:56:46.385Z,8.9
2018-06-14T14:59:46.367Z,9.2
2018-06-14T15:02:46.324Z,8.5
2018-06-14T15:05:46.529Z,10.7
2018-06-14T15:08:46.496Z,8.8
2018-06-14T15:11:56.784Z,8.1
2018-06-14T15:14:46.341Z,7.5
2018-06-14T15:17:47.062Z,7.8
2018-06-14T15:20:46.403Z,7.4
2018-06-14T15:23:46.446Z,6.4
2018-06-14T15:26:46.624Z,8
2018-06-14T15:29:46.428Z,6.9
2018-06-14T15:32:46.459Z,6
2018-06-14T15:35:46.425Z,5.9
2018-06-14T15:38:46.316Z,6.1
2018-06-14T15:41:46.262Z,6.4
2018-06-14T15:44:46.467Z,5.6
2018-06-14T15:47:46.209Z,5.1
2018-06-14T15:50:46.477Z,4.7
2018-06-14T15:53:46.335Z,5.8
2018-06-14T15:56:46.336Z,4.8
2018-06-14T15:59:46.394Z,4.6
2018-06-14T16:02:46.407Z,5.2
2018-06-14T16:05:46.198Z,4.8
2018-06-14T16:08:46.347Z,4.8
2018-06-14T16:11:46.298Z,4.4
2018-06-14T16:14:46.155Z,4.3
2018-06-14T16:17:46.486Z,5
2018-06-14T16:20:46.289Z,6.6
2018-06-14T16:23:46.312Z,6
2018-06-14T16:26:46.531Z,6.3
2018-06-14T16:29:46.381Z,5.8
2018-06-14T16:32:46.458Z,7.8
2018-06-14T16:35:46.419Z,6.9
2018-06-14T16:38:46.403Z,7.6
2018-06-14T16:41:46.473Z,6.5
2018-06-14T16:44:46.334Z,9.3
2018-06-14T16:47:46.630Z,8
2018-06-14T16:50:46.419Z,7.2
2018-06-14T16:53:46.355Z,6.4
2018-06-14T16:56:46.512Z,7.2
2018-06-14T16:59:46.237Z,7.4
2018-06-14T17:02:46.430Z,6.3
2018-06-14T17:05:46.263Z,6.7
2018-06-14T17:08:46.273Z,5.9
2018-06-14T17:11:46.297Z,5.5
2018-06-14T17:14:46.385Z,6
2018-06-14T17:17:46.425Z,6.1
2018-06-14T17:20:46.227Z,6.8
2018-06-14T17:23:46.521Z,7.3
2018-06-14T17:26:46.239Z,8.2
2018-06-14T17:29:46.406Z,8.5
2018-06-14T17:32:46.492Z,7.9
2018-06-14T17:35:46.212Z,8.4
2018-06-14T17:38:46.420Z,7.6
2018-06-14T17:41:46.453Z,8.1
2018-06-14T17:44:56.427Z,8.3
2018-06-14T17:47:46.994Z,7.4
2018-06-14T17:50:46.413Z,8.1
2018-06-14T17:53:47.148Z,8.1
2018-06-14T17:56:46.186Z,7.8
2018-06-14T17:59:46.543Z,8
2018-06-14T18:02:46.435Z,8.3
2018-06-14T18:05:46.316Z,7.6
2018-06-14T18:08:46.438Z,9.7
2018-06-14T18:11:46.446Z,8
2018-06-14T18:14:46.275Z,10.6
2018-06-14T18:17:46.802Z,9.2
2018-06-14T18:20:46.509Z,7.5
2018-06-14T18:23:46.210Z,7.5
2018-06-14T18:31:15.295Z,5
2018-06-14T18:42:11.910Z,6.3
2018-06-14T18:45:11.939Z,6.1
2018-06-14T18:48:11.968Z,7.1
2018-06-14T18:51:12.028Z,7
2018-06-14T18:54:12.178Z,6.2
2018-06-14T18:57:11.918Z,7.3
2018-06-14T19:00:12.173Z,6
2018-06-14T19:03:12.135Z,5.7
2018-06-14T19:06:12.025Z,5.3
2018-06-14T19:09:12.071Z,5.8
2018-06-14T19:12:11.967Z,5.7
2018-06-14T19:15:11.863Z,5.9
2018-06-14T19:18:12.005Z,5.8
2018-06-14T19:21:11.881Z,5.1
2018-06-14T19:24:12.001Z,4.7
2018-06-14T19:27:11.792Z,4.5
2018-06-14T19:30:11.842Z,4.5
2018-06-14T19:33:11.944Z,4.3
2018-06-14T19:36:11.912Z,4
2018-06-14T19:39:12.053Z,5.6
2018-06-14T19:42:12.220Z,5.5
2018-06-14T19:45:12.269Z,5.3
2018-06-14T19:48:12.137Z,5.7
2018-06-14T19:51:12.108Z,5.3
2018-06-14T19:54:12.291Z,6.7
2018-06-14T19:57:12.099Z,7.6
2018-06-14T20:00:11.963Z,6.8
2018-06-14T20:03:12.098Z,6.8
2018-06-14T20:06:12.138Z,7.3
2018-06-14T20:09:12.800Z,7.6
2018-06-14T20:12:11.973Z,7.3
2018-06-14T20:15:12.213Z,7.9
2018-06-14T20:18:12.165Z,6.9
2018-06-14T20:21:12.092Z,6.2
2018-06-14T20:24:12.067Z,5.6
2018-06-14T20:27:12.060Z,5.5
2018-06-14T20:30:12.089Z,5.7
2018-06-14T20:33:11.922Z,7.5
2018-06-14T20:36:11.998Z,6.6
2018-06-14T20:39:11.947Z,6
2018-06-14T20:42:12.436Z,5.7
2018-06-14T20:45:12.202Z,5.8
2018-06-14T20:48:12.046Z,5
2018-06-14T20:51:12.220Z,5.8
2018-06-14T20:54:12.392Z,5.3
2018-06-14T20:57:12.059Z,5.8
2018-06-14T21:00:12.470Z,6.2
2018-06-14T21:03:12.920Z,6.3
2018-06-14T21:06:12.238Z,6.5
2018-06-14T21:09:12.452Z,7
2018-06-14T21:12:12.591Z,9.5
2018-06-14T21:15:12.099Z,8.3
2018-06-14T21:18:12.003Z,7.3
2018-06-14T21:21:12.284Z,8.1
2018-06-14T21:24:11.826Z,8.6
2018-06-14T21:27:12.161Z,7.2
2018-06-14T21:30:12.164Z,8.3
2018-06-14T21:33:15.670Z,6.8
2018-06-14T21:36:12.013Z,6.2
2018-06-14T21:39:12.044Z,6.1
2018-06-14T21:42:11.893Z,5.3
2018-06-14T21:45:11.912Z,5.8
2018-06-14T21:48:12.214Z,5.8
2018-06-14T21:51:11.969Z,5.6
2018-06-14T21:54:11.881Z,5.4
2018-06-14T21:57:12.018Z,5.4
2018-06-14T22:00:11.732Z,5.2
2018-06-14T22:03:12.021Z,5.5
2018-06-14T22:06:11.986Z,4.7
2018-06-14T22:09:11.943Z,6
2018-06-14T22:12:11.917Z,5.8
2018-06-14T22:15:12.084Z,6.4
2018-06-14T22:18:11.941Z,5.5
2018-06-14T22:21:12.083Z,5.3
2018-06-14T22:24:11.844Z,4.8
2018-06-14T22:27:11.867Z,5.1
2018-06-14T22:30:12.048Z,4.7
2018-06-14T22:33:12.069Z,4.3
2018-06-14T22:36:11.817Z,4.5
2018-06-14T22:39:11.870Z,4.2
2018-06-14T22:42:11.980Z,4.9
2018-06-14T22:45:11.839Z,4.9
2018-06-14T22:48:11.928Z,4.4
2018-06-14T22:51:11.854Z,4.3
2018-06-14T22:54:11.840Z,4.1
2018-06-14T22:57:12.028Z,4.6
2018-06-14T23:00:11.952Z,5.2
2018-06-14T23:03:11.898Z,4.8
2018-06-14T23:06:11.877Z,5.7
2018-06-14T23:09:11.904Z,4.8
2018-06-14T23:12:11.923Z,4.5
2018-06-14T23:15:11.859Z,4.3
2018-06-14T23:18:11.906Z,4.4
2018-06-14T23:21:11.833Z,4.5
2018-06-14T23:24:11.888Z,4.3
2018-06-14T23:27:11.902Z,4.2
2018-06-14T23:30:11.871Z,4
2018-06-14T23:33:11.867Z,4.5
2018-06-14T23:36:11.883Z,4.5
2018-06-14T23:39:36.268Z,4.2
2018-06-14T23:42:12.032Z,5
2018-06-14T23:45:12.015Z,4.8
2018-06-14T23:48:11.925Z,4.4
2018-06-14T23:51:12.196Z,4.6
2018-06-14T23:54:12.036Z,4.4
2018-06-14T23:57:11.852Z,4.5
